DLH4A EDDF-UACC
Flight info
| Callsign | DLH4A |
|---|---|
| Flight time | N/A |
| Altitude | 37000 |
| Route | SULUS4D/07C SULUS Z650 NOGRA DCT VEMUT DCT PEPIK DCT NORAH DCT DINRO DCT UDROS UM859 KARDE UN644 ROLIN N644 ODILI DCT BARAD M747 SUBUT T916 LEYLA N161 GASBI/K0900F370 N161 MASAV N55 OGANU P574 VETUB VETUB2H |
| Aircraft | A359/H-SDE2E3GHIJ3J4J5LM1ORWXY/LB1D1 |
Departure
| Time | N/A |
|---|---|
| Airport | Frankfurt Main Airport (EDDF) |
Arrival
| Time | 2026-04-26 16:48 |
|---|---|
| Airport | Nursultan Nazarbayev International Airport (UACC) |
| Time | Latitude | Longitude | Altitude | Speed | Heading |
|---|---|---|---|---|---|
| 2026-04-26 14:23 | 41.01108 | 47.42986 | 37093 ft | 531 kts | 78° |
| 2026-04-26 14:24 | 41.01965 | 47.47735 | 37087 ft | 531 kts | 78° |
| 2026-04-26 14:24 | 41.03677 | 47.57247 | 37079 ft | 532 kts | 78° |
| 2026-04-26 14:25 | 41.05382 | 47.66759 | 37079 ft | 532 kts | 78° |
| 2026-04-26 14:25 | 41.07078 | 47.76277 | 37071 ft | 532 kts | 78° |
| 2026-04-26 14:26 | 41.08767 | 47.85800 | 37065 ft | 532 kts | 78° |
| 2026-04-26 14:26 | 41.10629 | 47.95282 | 37056 ft | 534 kts | 70° |
| 2026-04-26 14:27 | 41.14153 | 48.03903 | 37040 ft | 534 kts | 55° |
| 2026-04-26 14:27 | 41.18483 | 48.11927 | 37031 ft | 537 kts | 53° |
| 2026-04-26 14:28 | 41.22926 | 48.19880 | 37015 ft | 537 kts | 52° |
| 2026-04-26 14:28 | 41.27350 | 48.27857 | 37010 ft | 538 kts | 53° |
| 2026-04-26 14:29 | 41.31754 | 48.35882 | 36994 ft | 538 kts | 53° |
| 2026-04-26 14:29 | 41.36150 | 48.43940 | 36994 ft | 539 kts | 53° |
| 2026-04-26 14:30 | 41.40530 | 48.51992 | 36993 ft | 538 kts | 53° |
| 2026-04-26 14:30 | 41.44919 | 48.60020 | 36992 ft | 536 kts | 52° |
| 2026-04-26 14:31 | 41.49370 | 48.67965 | 36994 ft | 535 kts | 52° |
| 2026-04-26 14:31 | 41.53811 | 48.75899 | 36994 ft | 535 kts | 52° |
| 2026-04-26 14:32 | 41.58004 | 48.84063 | 36999 ft | 534 kts | 56° |
| 2026-04-26 14:32 | 41.62078 | 48.92354 | 37003 ft | 534 kts | 56° |
| 2026-04-26 14:33 | 41.66165 | 49.00612 | 37001 ft | 534 kts | 55° |
| 2026-04-26 14:33 | 41.70280 | 49.08856 | 37002 ft | 534 kts | 55° |
| 2026-04-26 14:34 | 41.74405 | 49.17112 | 37000 ft | 534 kts | 55° |
| 2026-04-26 14:34 | 41.78522 | 49.25374 | 37013 ft | 535 kts | 55° |
| 2026-04-26 14:35 | 41.82656 | 49.33643 | 37016 ft | 535 kts | 53° |
| 2026-04-26 14:35 | 41.87029 | 49.41679 | 37021 ft | 535 kts | 52° |
| 2026-04-26 14:36 | 41.91480 | 49.49662 | 37028 ft | 535 kts | 52° |
| 2026-04-26 14:36 | 41.95897 | 49.57697 | 37037 ft | 536 kts | 52° |
| 2026-04-26 14:37 | 42.00279 | 49.65764 | 37039 ft | 536 kts | 52° |
| 2026-04-26 14:37 | 42.04654 | 49.73862 | 37044 ft | 536 kts | 52° |
| 2026-04-26 14:38 | 42.09021 | 49.81967 | 37051 ft | 536 kts | 52° |
| 2026-04-26 14:38 | 42.13377 | 49.90067 | 37058 ft | 535 kts | 52° |
| 2026-04-26 14:39 | 42.17728 | 49.98180 | 37066 ft | 535 kts | 52° |
| 2026-04-26 14:39 | 42.22078 | 50.06312 | 37072 ft | 535 kts | 52° |
| 2026-04-26 14:40 | 42.26413 | 50.14436 | 37086 ft | 535 kts | 52° |
| 2026-04-26 14:40 | 42.30745 | 50.22579 | 37069 ft | 535 kts | 52° |
| 2026-04-26 14:41 | 42.35075 | 50.30738 | 37085 ft | 535 kts | 52° |
| 2026-04-26 14:41 | 42.39397 | 50.38907 | 37087 ft | 535 kts | 52° |
| 2026-04-26 14:42 | 42.43713 | 50.47085 | 37110 ft | 535 kts | 52° |
| 2026-04-26 14:42 | 42.48171 | 50.55132 | 37095 ft | 535 kts | 50° |
| 2026-04-26 14:43 | 42.52772 | 50.63034 | 37101 ft | 535 kts | 50° |
| 2026-04-26 14:43 | 42.57347 | 50.70947 | 37110 ft | 535 kts | 50° |
| 2026-04-26 14:44 | 42.61900 | 50.78923 | 37120 ft | 535 kts | 50° |
| 2026-04-26 14:44 | 42.66429 | 50.86914 | 37116 ft | 535 kts | 50° |
| 2026-04-26 14:45 | 42.70951 | 50.94917 | 37121 ft | 535 kts | 50° |
| 2026-04-26 14:45 | 42.75469 | 51.02930 | 37122 ft | 535 kts | 50° |
| 2026-04-26 14:46 | 42.79984 | 51.10957 | 37127 ft | 535 kts | 50° |
| 2026-04-26 14:46 | 42.84490 | 51.18989 | 37130 ft | 535 kts | 50° |
| 2026-04-26 14:47 | 42.88992 | 51.27036 | 37130 ft | 535 kts | 50° |
| 2026-04-26 14:47 | 42.93493 | 51.35104 | 37135 ft | 535 kts | 50° |
| 2026-04-26 14:48 | 42.97982 | 51.43172 | 37135 ft | 535 kts | 50° |
| 2026-04-26 14:48 | 43.02469 | 51.51257 | 37137 ft | 535 kts | 50° |
| 2026-04-26 14:49 | 43.06949 | 51.59354 | 37135 ft | 535 kts | 50° |
| 2026-04-26 14:49 | 43.11424 | 51.67462 | 37139 ft | 535 kts | 50° |
| 2026-04-26 14:50 | 43.15891 | 51.75579 | 37141 ft | 535 kts | 50° |
| 2026-04-26 14:50 | 43.20352 | 51.83706 | 37141 ft | 535 kts | 50° |
| 2026-04-26 14:51 | 43.24811 | 51.91853 | 37144 ft | 535 kts | 50° |
| 2026-04-26 14:51 | 43.29261 | 52.00005 | 37141 ft | 535 kts | 50° |
| 2026-04-26 14:52 | 43.33707 | 52.08174 | 37146 ft | 535 kts | 51° |
| 2026-04-26 14:52 | 43.38146 | 52.16350 | 37149 ft | 535 kts | 51° |
| 2026-04-26 14:53 | 43.42575 | 52.24534 | 37149 ft | 535 kts | 51° |
| 2026-04-26 14:53 | 43.47003 | 52.32735 | 37151 ft | 535 kts | 51° |
| 2026-04-26 14:54 | 43.51424 | 52.40948 | 37154 ft | 535 kts | 51° |
| 2026-04-26 14:54 | 43.55844 | 52.49182 | 37157 ft | 535 kts | 51° |
| 2026-04-26 14:55 | 43.60257 | 52.57426 | 37157 ft | 535 kts | 51° |
| 2026-04-26 14:55 | 43.64663 | 52.65680 | 37157 ft | 536 kts | 51° |
| 2026-04-26 14:56 | 43.69066 | 52.73954 | 37164 ft | 536 kts | 51° |
| 2026-04-26 14:56 | 43.73455 | 52.82262 | 37167 ft | 536 kts | 51° |
| 2026-04-26 14:57 | 43.77833 | 52.90577 | 37167 ft | 536 kts | 51° |
| 2026-04-26 14:57 | 43.82214 | 52.98912 | 37170 ft | 536 kts | 51° |
| 2026-04-26 14:58 | 43.86589 | 53.07259 | 37171 ft | 536 kts | 51° |
| 2026-04-26 14:58 | 43.90957 | 53.15608 | 37174 ft | 537 kts | 52° |
| 2026-04-26 14:59 | 43.95321 | 53.23985 | 37176 ft | 537 kts | 52° |
| 2026-04-26 14:59 | 43.99685 | 53.32392 | 37180 ft | 537 kts | 52° |
| 2026-04-26 15:00 | 44.04043 | 53.40807 | 37182 ft | 538 kts | 52° |
| 2026-04-26 15:00 | 44.08400 | 53.49242 | 37187 ft | 538 kts | 52° |
| 2026-04-26 15:01 | 44.12753 | 53.57696 | 37183 ft | 539 kts | 52° |
| 2026-04-26 15:01 | 44.17102 | 53.66165 | 37182 ft | 539 kts | 52° |
| 2026-04-26 15:02 | 44.21448 | 53.74652 | 37184 ft | 539 kts | 52° |
| 2026-04-26 15:02 | 44.25783 | 53.83145 | 37181 ft | 539 kts | 52° |
| 2026-04-26 15:03 | 44.30114 | 53.91654 | 37185 ft | 539 kts | 52° |
| 2026-04-26 15:03 | 44.34440 | 54.00178 | 37190 ft | 539 kts | 52° |
| 2026-04-26 15:04 | 44.38762 | 54.08717 | 37186 ft | 539 kts | 52° |
| 2026-04-26 15:04 | 44.43073 | 54.17263 | 37185 ft | 539 kts | 52° |
| 2026-04-26 15:05 | 44.47380 | 54.25824 | 37192 ft | 538 kts | 52° |
| 2026-04-26 15:05 | 44.51669 | 54.34376 | 37197 ft | 538 kts | 52° |
| 2026-04-26 15:06 | 44.55961 | 54.42958 | 37188 ft | 538 kts | 52° |
| 2026-04-26 15:06 | 44.60236 | 54.51533 | 37194 ft | 538 kts | 52° |
| 2026-04-26 15:07 | 44.66873 | 54.64127 | 37191 ft | 533 kts | 42° |
| 2026-04-26 15:07 | 44.72198 | 54.71312 | 37213 ft | 531 kts | 39° |
| 2026-04-26 15:08 | 44.77647 | 54.78287 | 37204 ft | 531 kts | 38° |
| 2026-04-26 15:08 | 44.83110 | 54.85245 | 37211 ft | 531 kts | 39° |
| 2026-04-26 15:09 | 44.88556 | 54.92231 | 37210 ft | 531 kts | 39° |
| 2026-04-26 15:09 | 44.93993 | 54.99249 | 37213 ft | 531 kts | 39° |
| 2026-04-26 15:10 | 44.98518 | 55.05109 | 37216 ft | 531 kts | 39° |
| 2026-04-26 15:10 | 45.04850 | 55.13330 | 37211 ft | 531 kts | 39° |
| 2026-04-26 15:11 | 45.10282 | 55.20369 | 37218 ft | 530 kts | 38° |
| 2026-04-26 15:11 | 45.15920 | 55.27020 | 37219 ft | 528 kts | 35° |
| 2026-04-26 15:12 | 45.21637 | 55.33535 | 37218 ft | 528 kts | 35° |
| 2026-04-26 15:12 | 45.27323 | 55.40112 | 37223 ft | 529 kts | 36° |
| 2026-04-26 15:13 | 45.32982 | 55.46755 | 37223 ft | 529 kts | 36° |
| 2026-04-26 15:13 | 45.38630 | 55.53426 | 37226 ft | 529 kts | 36° |
| 2026-04-26 15:14 | 45.44267 | 55.60101 | 37228 ft | 528 kts | 36° |
| 2026-04-26 15:14 | 45.49905 | 55.66791 | 37225 ft | 528 kts | 36° |
| 2026-04-26 15:15 | 45.55535 | 55.73487 | 37227 ft | 528 kts | 36° |
| 2026-04-26 15:15 | 45.61163 | 55.80199 | 37229 ft | 528 kts | 36° |
| 2026-04-26 15:16 | 45.66783 | 55.86920 | 37231 ft | 528 kts | 36° |
| 2026-04-26 15:16 | 45.72400 | 55.93656 | 37229 ft | 528 kts | 36° |
| 2026-04-26 15:17 | 45.77075 | 55.99276 | 37226 ft | 528 kts | 36° |
| 2026-04-26 15:17 | 45.83615 | 56.07159 | 37226 ft | 528 kts | 36° |
| 2026-04-26 15:18 | 45.89219 | 56.13935 | 37231 ft | 528 kts | 36° |
| 2026-04-26 15:18 | 45.94813 | 56.20718 | 37229 ft | 528 kts | 36° |
| 2026-04-26 15:19 | 46.00409 | 56.27520 | 37233 ft | 528 kts | 36° |
| 2026-04-26 15:19 | 46.06003 | 56.34340 | 37227 ft | 528 kts | 36° |
| 2026-04-26 15:20 | 46.11588 | 56.41166 | 37224 ft | 528 kts | 36° |
| 2026-04-26 15:20 | 46.17176 | 56.48016 | 37227 ft | 528 kts | 36° |
| 2026-04-26 15:21 | 46.22763 | 56.54882 | 37228 ft | 528 kts | 36° |
| 2026-04-26 15:21 | 46.28344 | 56.61761 | 37226 ft | 528 kts | 37° |
| 2026-04-26 15:22 | 46.33917 | 56.68649 | 37226 ft | 529 kts | 37° |
| 2026-04-26 15:22 | 46.39491 | 56.75557 | 37228 ft | 529 kts | 37° |
| 2026-04-26 15:23 | 46.45066 | 56.82493 | 37228 ft | 529 kts | 37° |
| 2026-04-26 15:23 | 46.49881 | 56.90596 | 37232 ft | 537 kts | 54° |
| 2026-04-26 15:24 | 46.53815 | 56.99797 | 37228 ft | 538 kts | 57° |
| 2026-04-26 15:24 | 46.57595 | 57.09176 | 37229 ft | 539 kts | 57° |
| 2026-04-26 15:25 | 46.60738 | 57.17015 | 37225 ft | 539 kts | 57° |
| 2026-04-26 15:25 | 46.65150 | 57.27965 | 37227 ft | 539 kts | 57° |
| 2026-04-26 15:26 | 46.68939 | 57.37360 | 37229 ft | 539 kts | 57° |
| 2026-04-26 15:26 | 46.72722 | 57.46767 | 37229 ft | 539 kts | 57° |
| 2026-04-26 15:27 | 46.76498 | 57.56192 | 37229 ft | 539 kts | 57° |
| 2026-04-26 15:27 | 46.80268 | 57.65637 | 37228 ft | 540 kts | 57° |
| 2026-04-26 15:28 | 46.84025 | 57.75084 | 37228 ft | 540 kts | 57° |
| 2026-04-26 15:28 | 46.87779 | 57.84554 | 37229 ft | 540 kts | 57° |
| 2026-04-26 15:29 | 46.91528 | 57.94043 | 37229 ft | 540 kts | 57° |
| 2026-04-26 15:30 | 46.99006 | 58.13074 | 37231 ft | 540 kts | 58° |
| 2026-04-26 15:30 | 47.02733 | 58.22610 | 37233 ft | 541 kts | 58° |
| 2026-04-26 15:31 | 47.08314 | 58.36951 | 37235 ft | 541 kts | 58° |
| 2026-04-26 15:32 | 47.12645 | 58.48133 | 37235 ft | 541 kts | 58° |
| 2026-04-26 15:32 | 47.17586 | 58.60946 | 37236 ft | 542 kts | 58° |
| 2026-04-26 15:33 | 47.21282 | 58.70572 | 37237 ft | 542 kts | 58° |
| 2026-04-26 15:33 | 47.24973 | 58.80217 | 37238 ft | 542 kts | 58° |
| 2026-04-26 15:34 | 47.28658 | 58.89883 | 37233 ft | 543 kts | 58° |
| 2026-04-26 15:34 | 47.32341 | 58.99578 | 37231 ft | 543 kts | 58° |
| 2026-04-26 15:35 | 47.36014 | 59.09283 | 37233 ft | 543 kts | 58° |
| 2026-04-26 15:35 | 47.39684 | 59.19014 | 37235 ft | 544 kts | 58° |
| 2026-04-26 15:36 | 47.43347 | 59.28761 | 37232 ft | 544 kts | 59° |
| 2026-04-26 15:36 | 47.47003 | 59.38525 | 37228 ft | 544 kts | 59° |
| 2026-04-26 15:37 | 47.50652 | 59.48309 | 37232 ft | 545 kts | 59° |
| 2026-04-26 15:37 | 47.54294 | 59.58107 | 37233 ft | 545 kts | 59° |
| 2026-04-26 15:38 | 47.57932 | 59.67931 | 37240 ft | 545 kts | 59° |
| 2026-04-26 15:38 | 47.61560 | 59.77764 | 37230 ft | 545 kts | 59° |
| 2026-04-26 15:39 | 47.65181 | 59.87615 | 37230 ft | 545 kts | 59° |
| 2026-04-26 15:39 | 47.67587 | 59.94183 | 37229 ft | 545 kts | 59° |
| 2026-04-26 15:40 | 47.72395 | 60.07351 | 37230 ft | 546 kts | 59° |
| 2026-04-26 15:40 | 47.75996 | 60.17258 | 37224 ft | 546 kts | 59° |
| 2026-04-26 15:41 | 47.79584 | 60.27172 | 37228 ft | 546 kts | 60° |
| 2026-04-26 15:41 | 47.83165 | 60.37106 | 37232 ft | 546 kts | 60° |
| 2026-04-26 15:42 | 47.86740 | 60.47060 | 37233 ft | 546 kts | 60° |
| 2026-04-26 15:42 | 47.90304 | 60.57019 | 37230 ft | 546 kts | 60° |
| 2026-04-26 15:43 | 47.93861 | 60.66998 | 37228 ft | 546 kts | 60° |
| 2026-04-26 15:44 | 47.99185 | 60.82003 | 37224 ft | 546 kts | 60° |
| 2026-04-26 15:44 | 48.04486 | 60.97029 | 37223 ft | 547 kts | 60° |
| 2026-04-26 15:45 | 48.09769 | 61.12091 | 37225 ft | 547 kts | 60° |
| 2026-04-26 15:46 | 48.15039 | 61.27202 | 37224 ft | 547 kts | 60° |
| 2026-04-26 15:46 | 48.17372 | 61.33922 | 37224 ft | 547 kts | 61° |
| 2026-04-26 15:47 | 48.23782 | 61.52469 | 37222 ft | 547 kts | 61° |
| 2026-04-26 15:48 | 48.27261 | 61.62595 | 37218 ft | 548 kts | 61° |
| 2026-04-26 15:48 | 48.30740 | 61.72756 | 37216 ft | 548 kts | 61° |
| 2026-04-26 15:49 | 48.34207 | 61.82925 | 37223 ft | 548 kts | 61° |
| 2026-04-26 15:49 | 48.37662 | 61.93098 | 37219 ft | 548 kts | 61° |
| 2026-04-26 15:50 | 48.41115 | 62.03304 | 37216 ft | 548 kts | 62° |
| 2026-04-26 15:50 | 48.44555 | 62.13516 | 37218 ft | 548 kts | 62° |
| 2026-04-26 15:51 | 48.47985 | 62.23736 | 37218 ft | 548 kts | 62° |
| 2026-04-26 15:51 | 48.51409 | 62.33977 | 37218 ft | 548 kts | 62° |
| 2026-04-26 15:52 | 48.54823 | 62.44234 | 37223 ft | 548 kts | 62° |
| 2026-04-26 15:52 | 48.58230 | 62.54507 | 37216 ft | 548 kts | 62° |
| 2026-04-26 15:53 | 48.61623 | 62.64781 | 37221 ft | 548 kts | 62° |
| 2026-04-26 15:53 | 48.64955 | 62.75124 | 37215 ft | 548 kts | 64° |
| 2026-04-26 15:54 | 48.68068 | 62.85623 | 37215 ft | 548 kts | 65° |
| 2026-04-26 15:54 | 48.71151 | 62.96160 | 37221 ft | 548 kts | 65° |
| 2026-04-26 15:55 | 48.74254 | 63.06679 | 37222 ft | 548 kts | 65° |
| 2026-04-26 15:55 | 48.77367 | 63.17198 | 37217 ft | 548 kts | 65° |
| 2026-04-26 15:56 | 48.80474 | 63.27723 | 37219 ft | 548 kts | 65° |
| 2026-04-26 15:56 | 48.83569 | 63.38261 | 37223 ft | 548 kts | 65° |
| 2026-04-26 15:57 | 48.86649 | 63.48795 | 37214 ft | 547 kts | 65° |
| 2026-04-26 15:57 | 48.89771 | 63.59321 | 37212 ft | 547 kts | 63° |
| 2026-04-26 15:58 | 48.93223 | 63.69592 | 37214 ft | 546 kts | 61° |
| 2026-04-26 15:58 | 48.96739 | 63.79813 | 37222 ft | 546 kts | 61° |
| 2026-04-26 15:59 | 49.00199 | 63.90083 | 37219 ft | 546 kts | 62° |
| 2026-04-26 15:59 | 49.03613 | 64.00385 | 37221 ft | 546 kts | 62° |
| 2026-04-26 16:00 | 49.07011 | 64.10716 | 37220 ft | 546 kts | 62° |
| 2026-04-26 16:00 | 49.10403 | 64.21064 | 37225 ft | 546 kts | 62° |
| 2026-04-26 16:01 | 49.13785 | 64.31420 | 37222 ft | 546 kts | 62° |
| 2026-04-26 16:01 | 49.17161 | 64.41794 | 37217 ft | 546 kts | 63° |
| 2026-04-26 16:02 | 49.20527 | 64.52182 | 37222 ft | 547 kts | 63° |
| 2026-04-26 16:02 | 49.23890 | 64.62603 | 37219 ft | 547 kts | 63° |
| 2026-04-26 16:03 | 49.27242 | 64.73034 | 37216 ft | 547 kts | 63° |
| 2026-04-26 16:03 | 49.30586 | 64.83482 | 37213 ft | 547 kts | 63° |
| 2026-04-26 16:04 | 49.33922 | 64.93947 | 37217 ft | 548 kts | 63° |
| 2026-04-26 16:04 | 49.37183 | 65.04488 | 37219 ft | 548 kts | 65° |
| 2026-04-26 16:05 | 49.40292 | 65.15140 | 37220 ft | 548 kts | 65° |
| 2026-04-26 16:05 | 49.43389 | 65.25816 | 37212 ft | 548 kts | 65° |
| 2026-04-26 16:06 | 49.46500 | 65.36490 | 37214 ft | 548 kts | 65° |
| 2026-04-26 16:06 | 49.49615 | 65.47174 | 37214 ft | 548 kts | 65° |
| 2026-04-26 16:07 | 49.52718 | 65.57862 | 37211 ft | 549 kts | 65° |
| 2026-04-26 16:07 | 49.55813 | 65.68570 | 37211 ft | 549 kts | 65° |
| 2026-04-26 16:08 | 49.58900 | 65.79298 | 37214 ft | 549 kts | 65° |
| 2026-04-26 16:08 | 49.61979 | 65.90051 | 37204 ft | 549 kts | 66° |
| 2026-04-26 16:09 | 49.65042 | 66.00796 | 37207 ft | 549 kts | 66° |
| 2026-04-26 16:09 | 49.68101 | 66.11575 | 37208 ft | 549 kts | 66° |
| 2026-04-26 16:10 | 49.71146 | 66.22356 | 37209 ft | 549 kts | 66° |
| 2026-04-26 16:10 | 49.74181 | 66.33149 | 37205 ft | 549 kts | 66° |
| 2026-04-26 16:11 | 49.77263 | 66.43916 | 37208 ft | 549 kts | 65° |
| 2026-04-26 16:11 | 49.80388 | 66.54652 | 37212 ft | 549 kts | 65° |
| 2026-04-26 16:12 | 49.83503 | 66.65417 | 37210 ft | 549 kts | 66° |
| 2026-04-26 16:12 | 49.88133 | 66.81584 | 37210 ft | 549 kts | 66° |
| 2026-04-26 16:13 | 49.91204 | 66.92386 | 37213 ft | 549 kts | 66° |
| 2026-04-26 16:13 | 49.94269 | 67.03213 | 37209 ft | 549 kts | 66° |
| 2026-04-26 16:14 | 49.97320 | 67.14039 | 37206 ft | 549 kts | 66° |
| 2026-04-26 16:15 | 50.01203 | 67.30709 | 37208 ft | 548 kts | 72° |
| 2026-04-26 16:15 | 50.03607 | 67.41942 | 37207 ft | 549 kts | 71° |
| 2026-04-26 16:16 | 50.07319 | 67.58759 | 37200 ft | 549 kts | 71° |
| 2026-04-26 16:16 | 50.09818 | 67.69967 | 37200 ft | 549 kts | 71° |
| 2026-04-26 16:17 | 50.12307 | 67.81180 | 37198 ft | 549 kts | 71° |
| 2026-04-26 16:17 | 50.14782 | 67.92413 | 37202 ft | 549 kts | 71° |
| 2026-04-26 16:18 | 50.18473 | 68.09284 | 37199 ft | 549 kts | 72° |
| 2026-04-26 16:19 | 50.22142 | 68.26196 | 37193 ft | 549 kts | 72° |
| 2026-04-26 16:20 | 50.26108 | 68.42953 | 37192 ft | 550 kts | 69° |
| 2026-04-26 16:20 | 50.30316 | 68.59587 | 37190 ft | 550 kts | 69° |
| 2026-04-26 16:21 | 50.33059 | 68.70711 | 37183 ft | 549 kts | 70° |
| 2026-04-26 16:21 | 50.35775 | 68.81879 | 37184 ft | 549 kts | 70° |
| 2026-04-26 16:22 | 50.38472 | 68.93038 | 37180 ft | 549 kts | 70° |
| 2026-04-26 16:22 | 50.41137 | 69.04108 | 37185 ft | 531 kts | 70° |
| 2026-04-26 16:23 | 50.42418 | 69.09442 | 37187 ft | 518 kts | 70° |
| 2026-04-26 16:23 | 50.43672 | 69.14684 | 37174 ft | 513 kts | 70° |
| 2026-04-26 16:23 | 50.46167 | 69.25150 | 37031 ft | 514 kts | 70° |
| 2026-04-26 16:24 | 50.47412 | 69.30385 | 36607 ft | 514 kts | 70° |
| 2026-04-26 16:24 | 50.48655 | 69.35641 | 36192 ft | 514 kts | 70° |
| 2026-04-26 16:24 | 50.49896 | 69.40902 | 35778 ft | 515 kts | 70° |
| 2026-04-26 16:24 | 50.51136 | 69.46168 | 35370 ft | 516 kts | 70° |
| 2026-04-26 16:25 | 50.52380 | 69.51465 | 34865 ft | 518 kts | 70° |
| 2026-04-26 16:25 | 50.53625 | 69.56771 | 34304 ft | 519 kts | 70° |
| 2026-04-26 16:25 | 50.54868 | 69.62087 | 33653 ft | 520 kts | 70° |
| 2026-04-26 16:25 | 50.56111 | 69.67412 | 32981 ft | 520 kts | 70° |
| 2026-04-26 16:26 | 50.57355 | 69.72754 | 32330 ft | 521 kts | 70° |
| 2026-04-26 16:26 | 50.58182 | 69.76315 | 31897 ft | 522 kts | 70° |
| 2026-04-26 16:26 | 50.59839 | 69.83464 | 31080 ft | 523 kts | 70° |
| 2026-04-26 16:26 | 50.61079 | 69.88829 | 30466 ft | 523 kts | 70° |
| 2026-04-26 16:27 | 50.62318 | 69.94203 | 29786 ft | 523 kts | 70° |
| 2026-04-26 16:27 | 50.63554 | 69.99577 | 29054 ft | 522 kts | 70° |
| 2026-04-26 16:27 | 50.64783 | 70.04934 | 28377 ft | 520 kts | 70° |
| 2026-04-26 16:27 | 50.66004 | 70.10272 | 27710 ft | 518 kts | 70° |
| 2026-04-26 16:28 | 50.67221 | 70.15604 | 27049 ft | 516 kts | 71° |
| 2026-04-26 16:28 | 50.68427 | 70.20901 | 26404 ft | 514 kts | 71° |
| 2026-04-26 16:28 | 50.69678 | 70.26149 | 25761 ft | 511 kts | 68° |
| 2026-04-26 16:28 | 50.71028 | 70.31304 | 25176 ft | 508 kts | 68° |
| 2026-04-26 16:29 | 50.72378 | 70.36430 | 24563 ft | 505 kts | 68° |
| 2026-04-26 16:29 | 50.73706 | 70.41526 | 23971 ft | 501 kts | 68° |
| 2026-04-26 16:29 | 50.75007 | 70.46555 | 23327 ft | 488 kts | 68° |
| 2026-04-26 16:29 | 50.76248 | 70.51385 | 22667 ft | 464 kts | 68° |
| 2026-04-26 16:30 | 50.77427 | 70.55993 | 22030 ft | 443 kts | 68° |
| 2026-04-26 16:30 | 50.78557 | 70.60421 | 21383 ft | 428 kts | 68° |
| 2026-04-26 16:30 | 50.79659 | 70.64754 | 20748 ft | 423 kts | 68° |
| 2026-04-26 16:30 | 50.80745 | 70.69034 | 20142 ft | 420 kts | 68° |
| 2026-04-26 16:31 | 50.81826 | 70.73300 | 19533 ft | 416 kts | 68° |
| 2026-04-26 16:31 | 50.82895 | 70.77528 | 18935 ft | 415 kts | 68° |
| 2026-04-26 16:31 | 50.83969 | 70.81783 | 18331 ft | 418 kts | 68° |
| 2026-04-26 16:31 | 50.85044 | 70.86053 | 17654 ft | 419 kts | 68° |
| 2026-04-26 16:32 | 50.86119 | 70.90333 | 17131 ft | 420 kts | 68° |
| 2026-04-26 16:32 | 50.86835 | 70.93191 | 16771 ft | 418 kts | 68° |
| 2026-04-26 16:32 | 50.88252 | 70.98843 | 16097 ft | 413 kts | 67° |
| 2026-04-26 16:32 | 50.89308 | 71.03035 | 15581 ft | 409 kts | 66° |
| 2026-04-26 16:33 | 50.90668 | 71.06914 | 15089 ft | 401 kts | 50° |
| 2026-04-26 16:33 | 50.92699 | 71.09829 | 14608 ft | 390 kts | 28° |
| 2026-04-26 16:33 | 50.95110 | 71.11636 | 14140 ft | 382 kts | 18° |
| 2026-04-26 16:33 | 50.97569 | 71.13122 | 13630 ft | 377 kts | 17° |
| 2026-04-26 16:34 | 51.00007 | 71.14579 | 13099 ft | 373 kts | 17° |
| 2026-04-26 16:34 | 51.02413 | 71.16061 | 12575 ft | 370 kts | 19° |
| 2026-04-26 16:34 | 51.04646 | 71.17970 | 12042 ft | 357 kts | 29° |
| 2026-04-26 16:34 | 51.06644 | 71.20110 | 11569 ft | 337 kts | 31° |
| 2026-04-26 16:35 | 51.08503 | 71.22190 | 11085 ft | 319 kts | 32° |
| 2026-04-26 16:35 | 51.10270 | 71.24190 | 10603 ft | 305 kts | 32° |
| 2026-04-26 16:35 | 51.11948 | 71.26103 | 10212 ft | 290 kts | 32° |
| 2026-04-26 16:35 | 51.13541 | 71.27929 | 9912 ft | 278 kts | 31° |
| 2026-04-26 16:36 | 51.15095 | 71.29709 | 9468 ft | 275 kts | 31° |
| 2026-04-26 16:36 | 51.16640 | 71.31482 | 9012 ft | 273 kts | 31° |
| 2026-04-26 16:36 | 51.18169 | 71.33242 | 8570 ft | 272 kts | 31° |
| 2026-04-26 16:36 | 51.19706 | 71.35014 | 8127 ft | 272 kts | 31° |
| 2026-04-26 16:37 | 51.21235 | 71.36779 | 7688 ft | 272 kts | 31° |
| 2026-04-26 16:37 | 51.22758 | 71.38540 | 7257 ft | 271 kts | 31° |
| 2026-04-26 16:37 | 51.24277 | 71.40300 | 6832 ft | 270 kts | 31° |
| 2026-04-26 16:37 | 51.25286 | 71.41469 | 6551 ft | 269 kts | 31° |
| 2026-04-26 16:38 | 51.27300 | 71.43805 | 5951 ft | 268 kts | 31° |
| 2026-04-26 16:38 | 51.28800 | 71.45547 | 5512 ft | 267 kts | 31° |
| 2026-04-26 16:38 | 51.30295 | 71.47283 | 5078 ft | 266 kts | 31° |
| 2026-04-26 16:38 | 51.31786 | 71.49027 | 4635 ft | 266 kts | 32° |
| 2026-04-26 16:39 | 51.33130 | 71.51046 | 4189 ft | 270 kts | 47° |
| 2026-04-26 16:39 | 51.34027 | 71.53669 | 3842 ft | 270 kts | 70° |
| 2026-04-26 16:39 | 51.34292 | 71.56560 | 3765 ft | 257 kts | 91° |
| 2026-04-26 16:39 | 51.33975 | 71.59324 | 3766 ft | 253 kts | 111° |
| 2026-04-26 16:40 | 51.33144 | 71.61768 | 3763 ft | 251 kts | 131° |
| 2026-04-26 16:40 | 51.31891 | 71.63645 | 3764 ft | 246 kts | 151° |
| 2026-04-26 16:40 | 51.30370 | 71.64787 | 3767 ft | 239 kts | 170° |
| 2026-04-26 16:40 | 51.28759 | 71.65367 | 3766 ft | 238 kts | 174° |
| 2026-04-26 16:41 | 51.27157 | 71.66027 | 3778 ft | 239 kts | 166° |
| 2026-04-26 16:41 | 51.25702 | 71.67167 | 3798 ft | 229 kts | 152° |
| 2026-04-26 16:41 | 51.24495 | 71.68795 | 3785 ft | 229 kts | 137° |
| 2026-04-26 16:41 | 51.23550 | 71.70843 | 3779 ft | 232 kts | 122° |
| 2026-04-26 16:42 | 51.22752 | 71.73077 | 3771 ft | 232 kts | 123° |
| 2026-04-26 16:42 | 51.21591 | 71.74606 | 3779 ft | 206 kts | 167° |
| 2026-04-26 16:42 | 51.20287 | 71.74519 | 3790 ft | 182 kts | 213° |
| 2026-04-26 16:42 | 51.19312 | 71.73358 | 3787 ft | 173 kts | 231° |
| 2026-04-26 16:43 | 51.18460 | 71.71998 | 3781 ft | 174 kts | 231° |
| 2026-04-26 16:43 | 51.17604 | 71.70647 | 3787 ft | 173 kts | 231° |
| 2026-04-26 16:43 | 51.16746 | 71.69301 | 3784 ft | 173 kts | 230° |
| 2026-04-26 16:43 | 51.15887 | 71.67962 | 3783 ft | 173 kts | 230° |
| 2026-04-26 16:44 | 51.15025 | 71.66618 | 3786 ft | 174 kts | 230° |
| 2026-04-26 16:44 | 51.14160 | 71.65268 | 3783 ft | 175 kts | 230° |
| 2026-04-26 16:44 | 51.13296 | 71.63915 | 3787 ft | 174 kts | 230° |
| 2026-04-26 16:44 | 51.12454 | 71.62596 | 3744 ft | 167 kts | 231° |
| 2026-04-26 16:45 | 51.11646 | 71.61325 | 3556 ft | 162 kts | 231° |
| 2026-04-26 16:45 | 51.10851 | 71.60073 | 3322 ft | 161 kts | 231° |
| 2026-04-26 16:45 | 51.10069 | 71.58847 | 3107 ft | 153 kts | 231° |
| 2026-04-26 16:45 | 51.09346 | 71.57719 | 2909 ft | 140 kts | 231° |
| 2026-04-26 16:46 | 51.08683 | 71.56679 | 2726 ft | 129 kts | 232° |
| 2026-04-26 16:46 | 51.08057 | 71.55696 | 2557 ft | 126 kts | 232° |
| 2026-04-26 16:46 | 51.07436 | 71.54707 | 2389 ft | 127 kts | 232° |
| 2026-04-26 16:46 | 51.06821 | 71.53695 | 2199 ft | 128 kts | 233° |
| 2026-04-26 16:47 | 51.06203 | 71.52667 | 1936 ft | 130 kts | 230° |
| 2026-04-26 16:47 | 51.05541 | 71.51683 | 1784 ft | 132 kts | 223° |
| 2026-04-26 16:47 | 51.04853 | 71.50697 | 1650 ft | 134 kts | 223° |
| 2026-04-26 16:47 | 51.04194 | 71.49634 | 1506 ft | 137 kts | 229° |
| 2026-04-26 16:48 | 51.03511 | 71.48585 | 1291 ft | 136 kts | 225° |
| 2026-04-26 16:48 | 51.02849 | 71.47543 | 1175 ft | 131 kts | 226° |
| 2026-04-26 16:48 | 51.02317 | 71.46699 | 1175 ft | 72 kts | 223° |
| 2026-04-26 16:48 | 51.02124 | 71.46412 | 1172 ft | 26 kts | 223° |
| 2026-04-26 16:49 | 51.01996 | 71.46223 | 1175 ft | 24 kts | 223° |
| 2026-04-26 16:49 | 51.01876 | 71.46037 | 1176 ft | 24 kts | 224° |
| 2026-04-26 16:49 | 51.01759 | 71.45854 | 1177 ft | 24 kts | 225° |
| 2026-04-26 16:49 | 51.01718 | 71.45653 | 1177 ft | 12 kts | 291° |
| 2026-04-26 16:50 | 51.01727 | 71.45621 | 1175 ft | 1 kts | 297° |
| 2026-04-26 16:50 | 51.01729 | 71.45615 | 1175 ft | 0 kts | 297° |
| 2026-04-26 16:50 | 51.01741 | 71.45585 | 1175 ft | 6 kts | 303° |
| 2026-04-26 16:51 | 51.01768 | 71.45538 | 1175 ft | 5 kts | 328° |
| 2026-04-26 16:51 | 51.01807 | 71.45519 | 1176 ft | 9 kts | 359° |
| 2026-04-26 16:51 | 51.01889 | 71.45586 | 1174 ft | 19 kts | 41° |
| 2026-04-26 16:51 | 51.02011 | 71.45772 | 1173 ft | 29 kts | 44° |
| 2026-04-26 16:52 | 51.02164 | 71.46014 | 1173 ft | 33 kts | 44° |
| 2026-04-26 16:52 | 51.02217 | 71.46096 | 1173 ft | 30 kts | 44° |
| 2026-04-26 16:52 | 51.02267 | 71.46175 | 1177 ft | 1 kts | 46° |
| 2026-04-26 16:52 | 51.02288 | 71.46204 | 1172 ft | 8 kts | 36° |
| 2026-04-26 16:53 | 51.02357 | 71.46213 | 1173 ft | 12 kts | 334° |
| 2026-04-26 16:53 | 51.02398 | 71.46107 | 1174 ft | 12 kts | 264° |
| 2026-04-26 16:53 | 51.02382 | 71.45973 | 1175 ft | 14 kts | 287° |
| 2026-04-26 16:53 | 51.02445 | 71.45854 | 1176 ft | 13 kts | 342° |
| 2026-04-26 16:54 | 51.02536 | 71.45921 | 1172 ft | 16 kts | 30° |
| 2026-04-26 16:54 | 51.02605 | 71.45990 | 1175 ft | 6 kts | 32° |
| 2026-04-26 16:54 | 51.02609 | 71.45994 | 1175 ft | 0 kts | 31° |